sensor_id;sensor_type;location;lat;lon;timestamp;P1;durP1;ratioP1;P2;durP2;ratioP2
27740;SDS011;15134;48.768;9.184;2022-10-16T00:01:09;10.10;;;4.03;;
27740;SDS011;15134;48.768;9.184;2022-10-16T00:03:36;11.80;;;4.88;;
27740;SDS011;15134;48.768;9.184;2022-10-16T00:06:03;6.30;;;3.10;;
27740;SDS011;15134;48.768;9.184;2022-10-16T00:08:30;10.55;;;3.42;;
27740;SDS011;15134;48.768;9.184;2022-10-16T00:11:00;6.80;;;3.40;;
27740;SDS011;15134;48.768;9.184;2022-10-16T00:13:28;6.22;;;2.63;;
27740;SDS011;15134;48.768;9.184;2022-10-16T00:15:57;4.60;;;2.00;;
27740;SDS011;15134;48.768;9.184;2022-10-16T00:18:24;5.18;;;2.47;;
27740;SDS011;15134;48.768;9.184;2022-10-16T00:20:50;5.35;;;2.22;;
27740;SDS011;15134;48.768;9.184;2022-10-16T00:23:17;6.25;;;1.95;;
27740;SDS011;15134;48.768;9.184;2022-10-16T00:25:43;11.73;;;2.73;;
27740;SDS011;15134;48.768;9.184;2022-10-16T00:28:08;7.83;;;2.37;;
27740;SDS011;15134;48.768;9.184;2022-10-16T00:30:37;8.20;;;2.40;;
27740;SDS011;15134;48.768;9.184;2022-10-16T00:33:03;8.32;;;2.33;;
27740;SDS011;15134;48.768;9.184;2022-10-16T00:35:28;8.57;;;2.40;;
27740;SDS011;15134;48.768;9.184;2022-10-16T00:37:55;5.65;;;2.03;;
27740;SDS011;15134;48.768;9.184;2022-10-16T00:40:21;6.70;;;1.80;;
27740;SDS011;15134;48.768;9.184;2022-10-16T00:42:46;5.30;;;2.27;;
27740;SDS011;15134;48.768;9.184;2022-10-16T00:45:12;5.70;;;2.00;;
27740;SDS011;15134;48.768;9.184;2022-10-16T00:47:42;5.33;;;2.03;;
27740;SDS011;15134;48.768;9.184;2022-10-16T00:50:12;7.78;;;2.00;;
27740;SDS011;15134;48.768;9.184;2022-10-16T00:52:58;5.45;;;2.03;;
27740;SDS011;15134;48.768;9.184;2022-10-16T00:55:25;7.55;;;2.00;;
27740;SDS011;15134;48.768;9.184;2022-10-16T00:57:53;4.60;;;1.73;;
27740;SDS011;15134;48.768;9.184;2022-10-16T01:02:57;5.25;;;1.75;;
27740;SDS011;15134;48.768;9.184;2022-10-16T01:05:36;4.85;;;1.75;;
27740;SDS011;15134;48.768;9.184;2022-10-16T01:08:12;5.50;;;2.35;;
27740;SDS011;15134;48.768;9.184;2022-10-16T01:10:46;5.38;;;1.95;;
27740;SDS011;15134;48.768;9.184;2022-10-16T01:13:30;5.05;;;1.77;;
27740;SDS011;15134;48.768;9.184;2022-10-16T01:18:57;4.78;;;1.83;;
27740;SDS011;15134;48.768;9.184;2022-10-16T01:21:38;4.47;;;1.58;;
27740;SDS011;15134;48.768;9.184;2022-10-16T01:27:10;7.45;;;1.70;;
27740;SDS011;15134;48.768;9.184;2022-10-16T01:29:39;3.08;;;1.40;;
27740;SDS011;15134;48.768;9.184;2022-10-16T01:34:58;8.13;;;1.80;;
27740;SDS011;15134;48.768;9.184;2022-10-16T01:37:39;6.75;;;1.83;;
27740;SDS011;15134;48.768;9.184;2022-10-16T01:40:12;6.35;;;2.00;;
27740;SDS011;15134;48.768;9.184;2022-10-16T01:42:43;6.00;;;2.00;;
27740;SDS011;15134;48.768;9.184;2022-10-16T01:45:13;4.80;;;2.05;;
27740;SDS011;15134;48.768;9.184;2022-10-16T01:47:43;8.48;;;3.50;;
27740;SDS011;15134;48.768;9.184;2022-10-16T01:50:10;9.15;;;2.78;;
27740;SDS011;15134;48.768;9.184;2022-10-16T01:52:39;4.80;;;1.92;;
27740;SDS011;15134;48.768;9.184;2022-10-16T01:55:09;5.10;;;2.30;;
27740;SDS011;15134;48.768;9.184;2022-10-16T01:57:39;7.90;;;2.17;;
27740;SDS011;15134;48.768;9.184;2022-10-16T02:00:10;4.55;;;2.03;;
27740;SDS011;15134;48.768;9.184;2022-10-16T02:02:39;4.45;;;2.13;;
27740;SDS011;15134;48.768;9.184;2022-10-16T02:08:02;4.80;;;2.00;;
27740;SDS011;15134;48.768;9.184;2022-10-16T02:10:28;6.32;;;2.10;;
27740;SDS011;15134;48.768;9.184;2022-10-16T02:13:02;8.02;;;2.85;;
27740;SDS011;15134;48.768;9.184;2022-10-16T02:15:31;5.35;;;2.20;;
27740;SDS011;15134;48.768;9.184;2022-10-16T02:17:57;6.57;;;2.03;;
27740;SDS011;15134;48.768;9.184;2022-10-16T02:20:25;4.87;;;1.80;;
27740;SDS011;15134;48.768;9.184;2022-10-16T02:22:55;4.32;;;1.67;;
27740;SDS011;15134;48.768;9.184;2022-10-16T02:25:41;3.58;;;1.60;;
27740;SDS011;15134;48.768;9.184;2022-10-16T02:28:13;6.50;;;1.98;;
27740;SDS011;15134;48.768;9.184;2022-10-16T02:30:45;5.70;;;1.80;;
27740;SDS011;15134;48.768;9.184;2022-10-16T02:33:17;6.00;;;1.80;;
27740;SDS011;15134;48.768;9.184;2022-10-16T02:35:44;3.53;;;1.60;;
27740;SDS011;15134;48.768;9.184;2022-10-16T02:38:12;4.22;;;1.48;;
27740;SDS011;15134;48.768;9.184;2022-10-16T02:40:40;4.22;;;1.92;;
27740;SDS011;15134;48.768;9.184;2022-10-16T02:43:06;6.07;;;1.90;;
27740;SDS011;15134;48.768;9.184;2022-10-16T02:45:32;5.40;;;1.60;;
27740;SDS011;15134;48.768;9.184;2022-10-16T02:47:58;3.17;;;1.52;;
27740;SDS011;15134;48.768;9.184;2022-10-16T02:50:23;4.63;;;1.83;;
27740;SDS011;15134;48.768;9.184;2022-10-16T02:52:50;9.25;;;1.90;;
27740;SDS011;15134;48.768;9.184;2022-10-16T02:55:16;5.13;;;1.70;;
27740;SDS011;15134;48.768;9.184;2022-10-16T02:57:42;6.87;;;1.50;;
27740;SDS011;15134;48.768;9.184;2022-10-16T03:00:12;3.47;;;1.60;;
27740;SDS011;15134;48.768;9.184;2022-10-16T03:02:40;5.07;;;1.83;;
27740;SDS011;15134;48.768;9.184;2022-10-16T03:05:06;5.45;;;1.83;;
27740;SDS011;15134;48.768;9.184;2022-10-16T03:07:32;4.03;;;2.10;;
27740;SDS011;15134;48.768;9.184;2022-10-16T03:09:58;4.13;;;1.53;;
27740;SDS011;15134;48.768;9.184;2022-10-16T03:12:28;3.85;;;1.58;;
27740;SDS011;15134;48.768;9.184;2022-10-16T03:14:54;5.15;;;1.60;;
27740;SDS011;15134;48.768;9.184;2022-10-16T03:17:21;5.63;;;1.63;;
27740;SDS011;15134;48.768;9.184;2022-10-16T03:19:47;7.22;;;1.50;;
27740;SDS011;15134;48.768;9.184;2022-10-16T03:22:13;5.53;;;1.80;;
27740;SDS011;15134;48.768;9.184;2022-10-16T03:24:39;7.80;;;1.60;;
27740;SDS011;15134;48.768;9.184;2022-10-16T03:27:05;7.67;;;1.70;;
27740;SDS011;15134;48.768;9.184;2022-10-16T03:29:31;6.27;;;1.60;;
27740;SDS011;15134;48.768;9.184;2022-10-16T03:31:57;5.40;;;1.38;;
27740;SDS011;15134;48.768;9.184;2022-10-16T03:34:24;4.18;;;1.88;;
27740;SDS011;15134;48.768;9.184;2022-10-16T03:36:50;5.22;;;2.28;;
27740;SDS011;15134;48.768;9.184;2022-10-16T03:39:16;3.70;;;1.95;;
27740;SDS011;15134;48.768;9.184;2022-10-16T03:41:42;4.60;;;1.77;;
27740;SDS011;15134;48.768;9.184;2022-10-16T03:44:08;7.73;;;2.27;;
27740;SDS011;15134;48.768;9.184;2022-10-16T03:46:34;3.03;;;1.60;;
27740;SDS011;15134;48.768;9.184;2022-10-16T03:48:59;5.30;;;1.60;;
27740;SDS011;15134;48.768;9.184;2022-10-16T03:51:25;4.27;;;1.30;;
27740;SDS011;15134;48.768;9.184;2022-10-16T03:53:51;4.80;;;1.60;;
27740;SDS011;15134;48.768;9.184;2022-10-16T03:56:16;4.77;;;1.70;;
27740;SDS011;15134;48.768;9.184;2022-10-16T03:58:42;12.20;;;1.93;;
27740;SDS011;15134;48.768;9.184;2022-10-16T04:01:08;3.27;;;1.30;;
27740;SDS011;15134;48.768;9.184;2022-10-16T04:03:33;4.53;;;1.67;;
27740;SDS011;15134;48.768;9.184;2022-10-16T04:05:59;4.87;;;1.77;;
27740;SDS011;15134;48.768;9.184;2022-10-16T04:08:25;4.77;;;1.57;;
27740;SDS011;15134;48.768;9.184;2022-10-16T04:10:51;7.87;;;1.73;;
27740;SDS011;15134;48.768;9.184;2022-10-16T04:13:16;5.47;;;1.67;;
27740;SDS011;15134;48.768;9.184;2022-10-16T04:15:42;4.87;;;1.83;;
27740;SDS011;15134;48.768;9.184;2022-10-16T04:18:10;5.93;;;1.75;;
27740;SDS011;15134;48.768;9.184;2022-10-16T04:20:35;8.90;;;4.83;;
27740;SDS011;15134;48.768;9.184;2022-10-16T04:23:01;7.50;;;1.93;;
27740;SDS011;15134;48.768;9.184;2022-10-16T04:25:27;5.33;;;1.87;;
27740;SDS011;15134;48.768;9.184;2022-10-16T04:27:53;3.70;;;1.53;;
27740;SDS011;15134;48.768;9.184;2022-10-16T04:30:19;6.77;;;1.77;;
27740;SDS011;15134;48.768;9.184;2022-10-16T04:32:49;9.88;;;1.92;;
27740;SDS011;15134;48.768;9.184;2022-10-16T04:35:16;7.68;;;1.70;;
27740;SDS011;15134;48.768;9.184;2022-10-16T04:37:45;3.63;;;1.60;;
27740;SDS011;15134;48.768;9.184;2022-10-16T04:40:11;7.20;;;1.70;;
27740;SDS011;15134;48.768;9.184;2022-10-16T04:42:37;2.90;;;1.58;;
27740;SDS011;15134;48.768;9.184;2022-10-16T04:45:04;7.13;;;1.77;;
27740;SDS011;15134;48.768;9.184;2022-10-16T04:47:30;2.72;;;1.52;;
27740;SDS011;15134;48.768;9.184;2022-10-16T04:49:56;5.57;;;1.73;;
27740;SDS011;15134;48.768;9.184;2022-10-16T04:52:22;6.63;;;1.50;;
27740;SDS011;15134;48.768;9.184;2022-10-16T04:54:50;3.90;;;1.63;;
27740;SDS011;15134;48.768;9.184;2022-10-16T04:57:16;4.90;;;1.63;;
27740;SDS011;15134;48.768;9.184;2022-10-16T04:59:42;4.45;;;1.40;;
27740;SDS011;15134;48.768;9.184;2022-10-16T05:02:08;4.03;;;1.70;;
27740;SDS011;15134;48.768;9.184;2022-10-16T05:04:34;7.97;;;1.77;;
27740;SDS011;15134;48.768;9.184;2022-10-16T05:06:59;5.77;;;1.57;;
27740;SDS011;15134;48.768;9.184;2022-10-16T05:09:25;7.27;;;1.50;;
27740;SDS011;15134;48.768;9.184;2022-10-16T05:11:51;6.13;;;1.90;;
27740;SDS011;15134;48.768;9.184;2022-10-16T05:14:16;8.00;;;1.60;;
27740;SDS011;15134;48.768;9.184;2022-10-16T05:16:42;5.13;;;1.50;;
27740;SDS011;15134;48.768;9.184;2022-10-16T05:19:08;4.73;;;1.60;;
27740;SDS011;15134;48.768;9.184;2022-10-16T05:21:33;3.83;;;1.43;;
27740;SDS011;15134;48.768;9.184;2022-10-16T05:23:59;5.17;;;1.53;;
27740;SDS011;15134;48.768;9.184;2022-10-16T05:26:25;5.17;;;1.27;;
27740;SDS011;15134;48.768;9.184;2022-10-16T05:28:50;5.80;;;1.47;;
27740;SDS011;15134;48.768;9.184;2022-10-16T05:31:16;16.60;;;6.13;;
27740;SDS011;15134;48.768;9.184;2022-10-16T05:33:42;9.30;;;2.43;;
27740;SDS011;15134;48.768;9.184;2022-10-16T05:36:09;7.18;;;2.40;;
27740;SDS011;15134;48.768;9.184;2022-10-16T05:38:35;6.87;;;2.13;;
27740;SDS011;15134;48.768;9.184;2022-10-16T05:41:02;9.45;;;2.03;;
27740;SDS011;15134;48.768;9.184;2022-10-16T05:43:29;7.72;;;1.65;;
27740;SDS011;15134;48.768;9.184;2022-10-16T05:45:59;7.72;;;1.75;;
27740;SDS011;15134;48.768;9.184;2022-10-16T05:48:26;4.95;;;1.77;;
27740;SDS011;15134;48.768;9.184;2022-10-16T05:50:56;8.60;;;1.70;;
27740;SDS011;15134;48.768;9.184;2022-10-16T05:53:27;4.88;;;1.60;;
27740;SDS011;15134;48.768;9.184;2022-10-16T05:55:53;6.38;;;1.80;;
27740;SDS011;15134;48.768;9.184;2022-10-16T05:58:20;6.53;;;2.03;;
27740;SDS011;15134;48.768;9.184;2022-10-16T06:00:59;6.00;;;1.73;;
27740;SDS011;15134;48.768;9.184;2022-10-16T06:03:30;9.27;;;1.48;;
27740;SDS011;15134;48.768;9.184;2022-10-16T06:05:56;2.40;;;1.40;;
27740;SDS011;15134;48.768;9.184;2022-10-16T06:08:22;6.80;;;1.67;;
27740;SDS011;15134;48.768;9.184;2022-10-16T06:10:48;15.35;;;1.98;;
27740;SDS011;15134;48.768;9.184;2022-10-16T06:13:24;4.70;;;1.73;;
27740;SDS011;15134;48.768;9.184;2022-10-16T06:15:50;4.00;;;1.33;;
27740;SDS011;15134;48.768;9.184;2022-10-16T06:18:16;3.87;;;1.63;;
27740;SDS011;15134;48.768;9.184;2022-10-16T06:20:42;7.20;;;1.80;;
27740;SDS011;15134;48.768;9.184;2022-10-16T06:23:07;3.63;;;1.63;;
27740;SDS011;15134;48.768;9.184;2022-10-16T06:25:33;4.07;;;1.90;;
27740;SDS011;15134;48.768;9.184;2022-10-16T06:27:59;6.90;;;1.73;;
27740;SDS011;15134;48.768;9.184;2022-10-16T06:30:24;3.23;;;1.60;;
27740;SDS011;15134;48.768;9.184;2022-10-16T06:32:50;3.27;;;1.60;;
27740;SDS011;15134;48.768;9.184;2022-10-16T06:35:16;4.20;;;1.47;;
27740;SDS011;15134;48.768;9.184;2022-10-16T06:37:41;4.17;;;1.60;;
27740;SDS011;15134;48.768;9.184;2022-10-16T06:40:07;6.33;;;1.60;;
27740;SDS011;15134;48.768;9.184;2022-10-16T06:42:33;4.83;;;1.47;;
27740;SDS011;15134;48.768;9.184;2022-10-16T06:44:59;6.03;;;1.93;;
27740;SDS011;15134;48.768;9.184;2022-10-16T06:47:24;10.87;;;6.17;;
27740;SDS011;15134;48.768;9.184;2022-10-16T06:49:50;13.00;;;4.03;;
27740;SDS011;15134;48.768;9.184;2022-10-16T06:52:16;8.53;;;4.77;;
27740;SDS011;15134;48.768;9.184;2022-10-16T06:54:41;7.97;;;4.23;;
27740;SDS011;15134;48.768;9.184;2022-10-16T06:57:07;5.70;;;2.80;;
27740;SDS011;15134;48.768;9.184;2022-10-16T06:59:33;4.10;;;2.03;;
27740;SDS011;15134;48.768;9.184;2022-10-16T07:01:58;4.50;;;2.43;;
27740;SDS011;15134;48.768;9.184;2022-10-16T07:04:24;5.53;;;2.00;;
27740;SDS011;15134;48.768;9.184;2022-10-16T07:06:50;4.70;;;2.10;;
27740;SDS011;15134;48.768;9.184;2022-10-16T07:09:16;9.30;;;5.00;;
27740;SDS011;15134;48.768;9.184;2022-10-16T07:11:42;8.87;;;5.37;;
27740;SDS011;15134;48.768;9.184;2022-10-16T07:14:18;28.73;;;17.95;;
27740;SDS011;15134;48.768;9.184;2022-10-16T07:16:45;37.28;;;24.90;;
27740;SDS011;15134;48.768;9.184;2022-10-16T07:19:11;32.72;;;22.48;;
27740;SDS011;15134;48.768;9.184;2022-10-16T07:21:39;18.63;;;11.00;;
27740;SDS011;15134;48.768;9.184;2022-10-16T07:24:06;8.45;;;3.90;;
27740;SDS011;15134;48.768;9.184;2022-10-16T07:26:37;13.07;;;7.72;;
27740;SDS011;15134;48.768;9.184;2022-10-16T07:29:04;14.52;;;8.40;;
27740;SDS011;15134;48.768;9.184;2022-10-16T07:31:50;11.70;;;5.60;;
27740;SDS011;15134;48.768;9.184;2022-10-16T07:34:17;17.50;;;10.27;;
27740;SDS011;15134;48.768;9.184;2022-10-16T07:36:43;10.75;;;4.20;;
27740;SDS011;15134;48.768;9.184;2022-10-16T07:39:09;10.23;;;5.53;;
27740;SDS011;15134;48.768;9.184;2022-10-16T07:41:35;10.10;;;4.50;;
27740;SDS011;15134;48.768;9.184;2022-10-16T07:48:54;18.55;;;10.88;;
27740;SDS011;15134;48.768;9.184;2022-10-16T07:51:21;24.67;;;15.30;;
27740;SDS011;15134;48.768;9.184;2022-10-16T07:53:49;23.05;;;12.93;;
27740;SDS011;15134;48.768;9.184;2022-10-16T07:56:16;23.27;;;12.80;;
27740;SDS011;15134;48.768;9.184;2022-10-16T07:58:43;26.67;;;16.00;;
27740;SDS011;15134;48.768;9.184;2022-10-16T08:01:10;27.25;;;17.15;;
27740;SDS011;15134;48.768;9.184;2022-10-16T08:03:38;18.20;;;9.55;;
27740;SDS011;15134;48.768;9.184;2022-10-16T08:06:06;11.52;;;6.15;;
27740;SDS011;15134;48.768;9.184;2022-10-16T08:08:32;8.60;;;3.63;;
27740;SDS011;15134;48.768;9.184;2022-10-16T08:10:58;5.77;;;3.00;;
27740;SDS011;15134;48.768;9.184;2022-10-16T08:13:24;7.50;;;3.50;;
27740;SDS011;15134;48.768;9.184;2022-10-16T08:15:51;14.05;;;4.82;;
27740;SDS011;15134;48.768;9.184;2022-10-16T08:18:18;4.47;;;1.80;;
27740;SDS011;15134;48.768;9.184;2022-10-16T08:20:44;7.90;;;1.90;;
27740;SDS011;15134;48.768;9.184;2022-10-16T08:23:13;6.77;;;3.03;;
27740;SDS011;15134;48.768;9.184;2022-10-16T08:25:40;2.97;;;1.20;;
27740;SDS011;15134;48.768;9.184;2022-10-16T08:28:07;6.78;;;2.40;;
27740;SDS011;15134;48.768;9.184;2022-10-16T08:30:35;7.80;;;3.58;;
27740;SDS011;15134;48.768;9.184;2022-10-16T08:33:01;3.53;;;1.80;;
27740;SDS011;15134;48.768;9.184;2022-10-16T08:35:27;3.33;;;1.40;;
27740;SDS011;15134;48.768;9.184;2022-10-16T08:37:53;5.55;;;1.67;;
27740;SDS011;15134;48.768;9.184;2022-10-16T08:40:20;6.00;;;2.10;;
27740;SDS011;15134;48.768;9.184;2022-10-16T08:48:14;10.45;;;3.42;;
27740;SDS011;15134;48.768;9.184;2022-10-16T08:50:40;7.88;;;2.00;;
27740;SDS011;15134;48.768;9.184;2022-10-16T08:53:06;20.45;;;2.20;;
27740;SDS011;15134;48.768;9.184;2022-10-16T08:58:13;18.92;;;12.30;;
27740;SDS011;15134;48.768;9.184;2022-10-16T09:00:40;18.80;;;9.05;;
27740;SDS011;15134;48.768;9.184;2022-10-16T09:03:32;5.47;;;2.63;;
27740;SDS011;15134;48.768;9.184;2022-10-16T09:19:45;5.32;;;1.40;;
27740;SDS011;15134;48.768;9.184;2022-10-16T09:22:17;2.88;;;1.17;;
27740;SDS011;15134;48.768;9.184;2022-10-16T09:24:46;3.03;;;1.20;;
27740;SDS011;15134;48.768;9.184;2022-10-16T09:27:13;4.28;;;0.90;;
27740;SDS011;15134;48.768;9.184;2022-10-16T09:29:40;6.70;;;2.72;;
27740;SDS011;15134;48.768;9.184;2022-10-16T09:32:13;7.00;;;2.72;;
27740;SDS011;15134;48.768;9.184;2022-10-16T09:34:52;4.22;;;1.38;;
27740;SDS011;15134;48.768;9.184;2022-10-16T09:37:21;3.45;;;1.52;;
27740;SDS011;15134;48.768;9.184;2022-10-16T09:42:24;3.15;;;1.20;;
27740;SDS011;15134;48.768;9.184;2022-10-16T09:44:55;6.47;;;1.60;;
27740;SDS011;15134;48.768;9.184;2022-10-16T09:47:25;5.13;;;2.30;;
27740;SDS011;15134;48.768;9.184;2022-10-16T09:49:57;4.43;;;1.10;;
27740;SDS011;15134;48.768;9.184;2022-10-16T09:52:30;5.05;;;1.60;;
27740;SDS011;15134;48.768;9.184;2022-10-16T09:54:57;5.75;;;2.10;;
27740;SDS011;15134;48.768;9.184;2022-10-16T09:57:37;5.22;;;1.67;;
27740;SDS011;15134;48.768;9.184;2022-10-16T10:00:16;2.85;;;1.40;;
27740;SDS011;15134;48.768;9.184;2022-10-16T10:02:43;3.28;;;1.25;;
27740;SDS011;15134;48.768;9.184;2022-10-16T10:05:22;5.20;;;1.10;;
27740;SDS011;15134;48.768;9.184;2022-10-16T10:08:00;3.22;;;1.35;;
27740;SDS011;15134;48.768;9.184;2022-10-16T10:10:32;7.40;;;2.15;;
27740;SDS011;15134;48.768;9.184;2022-10-16T10:13:02;7.00;;;1.30;;
27740;SDS011;15134;48.768;9.184;2022-10-16T10:15:32;2.80;;;1.10;;
27740;SDS011;15134;48.768;9.184;2022-10-16T10:18:00;3.70;;;1.05;;
27740;SDS011;15134;48.768;9.184;2022-10-16T10:20:32;4.35;;;1.20;;
27740;SDS011;15134;48.768;9.184;2022-10-16T10:23:19;4.85;;;1.52;;
27740;SDS011;15134;48.768;9.184;2022-10-16T10:33:52;7.00;;;3.05;;
27740;SDS011;15134;48.768;9.184;2022-10-16T10:36:39;4.65;;;2.53;;
27740;SDS011;15134;48.768;9.184;2022-10-16T10:55:54;13.82;;;7.35;;
27740;SDS011;15134;48.768;9.184;2022-10-16T11:01:17;4.53;;;1.65;;
27740;SDS011;15134;48.768;9.184;2022-10-16T11:06:48;12.55;;;6.97;;
27740;SDS011;15134;48.768;9.184;2022-10-16T11:09:20;13.15;;;7.68;;
27740;SDS011;15134;48.768;9.184;2022-10-16T11:14:34;10.10;;;4.90;;
27740;SDS011;15134;48.768;9.184;2022-10-16T11:17:28;14.82;;;8.02;;
27740;SDS011;15134;48.768;9.184;2022-10-16T11:20:11;9.87;;;5.37;;
27740;SDS011;15134;48.768;9.184;2022-10-16T11:23:21;17.23;;;9.40;;
27740;SDS011;15134;48.768;9.184;2022-10-16T11:25:32;5.63;;;2.95;;
27740;SDS011;15134;48.768;9.184;2022-10-16T11:36:16;18.60;;;11.95;;
27740;SDS011;15134;48.768;9.184;2022-10-16T11:41:36;8.50;;;2.78;;
27740;SDS011;15134;48.768;9.184;2022-10-16T11:46:58;15.48;;;8.80;;
27740;SDS011;15134;48.768;9.184;2022-10-16T11:55:59;9.52;;;4.78;;
27740;SDS011;15134;48.768;9.184;2022-10-16T12:03:59;8.63;;;4.03;;
27740;SDS011;15134;48.768;9.184;2022-10-16T12:06:52;7.00;;;3.53;;
27740;SDS011;15134;48.768;9.184;2022-10-16T12:09:29;7.78;;;2.85;;
27740;SDS011;15134;48.768;9.184;2022-10-16T12:11:57;5.40;;;2.58;;
27740;SDS011;15134;48.768;9.184;2022-10-16T12:19:21;8.45;;;2.40;;
27740;SDS011;15134;48.768;9.184;2022-10-16T12:21:48;7.03;;;2.33;;
27740;SDS011;15134;48.768;9.184;2022-10-16T12:27:22;7.80;;;3.30;;
27740;SDS011;15134;48.768;9.184;2022-10-16T12:29:49;3.30;;;1.60;;
27740;SDS011;15134;48.768;9.184;2022-10-16T12:35:01;5.05;;;3.22;;
27740;SDS011;15134;48.768;9.184;2022-10-16T12:37:31;5.47;;;3.50;;
27740;SDS011;15134;48.768;9.184;2022-10-16T12:40:04;5.63;;;2.95;;
27740;SDS011;15134;48.768;9.184;2022-10-16T12:42:48;8.10;;;2.17;;
27740;SDS011;15134;48.768;9.184;2022-10-16T12:45:30;7.83;;;2.73;;
27740;SDS011;15134;48.768;9.184;2022-10-16T12:47:59;5.68;;;2.03;;
27740;SDS011;15134;48.768;9.184;2022-10-16T12:50:42;5.88;;;2.80;;
27740;SDS011;15134;48.768;9.184;2022-10-16T12:53:18;4.80;;;2.40;;
27740;SDS011;15134;48.768;9.184;2022-10-16T12:58:33;5.45;;;2.17;;
27740;SDS011;15134;48.768;9.184;2022-10-16T13:01:07;5.13;;;2.00;;
27740;SDS011;15134;48.768;9.184;2022-10-16T13:03:50;3.97;;;1.85;;
27740;SDS011;15134;48.768;9.184;2022-10-16T13:06:33;6.35;;;1.70;;
27740;SDS011;15134;48.768;9.184;2022-10-16T13:22:34;5.82;;;2.75;;
27740;SDS011;15134;48.768;9.184;2022-10-16T13:28:06;4.45;;;1.95;;
27740;SDS011;15134;48.768;9.184;2022-10-16T13:36:04;4.28;;;1.20;;
27740;SDS011;15134;48.768;9.184;2022-10-16T13:38:31;5.55;;;2.08;;
27740;SDS011;15134;48.768;9.184;2022-10-16T13:41:11;6.00;;;3.60;;
27740;SDS011;15134;48.768;9.184;2022-10-16T13:43:44;6.38;;;1.88;;
27740;SDS011;15134;48.768;9.184;2022-10-16T13:46:14;3.88;;;2.10;;
27740;SDS011;15134;48.768;9.184;2022-10-16T13:48:41;10.02;;;4.85;;
27740;SDS011;15134;48.768;9.184;2022-10-16T13:51:18;8.07;;;4.15;;
27740;SDS011;15134;48.768;9.184;2022-10-16T13:53:44;6.78;;;2.03;;
27740;SDS011;15134;48.768;9.184;2022-10-16T13:56:14;4.18;;;1.75;;
27740;SDS011;15134;48.768;9.184;2022-10-16T13:58:42;2.65;;;1.27;;
27740;SDS011;15134;48.768;9.184;2022-10-16T14:01:23;5.15;;;2.50;;
27740;SDS011;15134;48.768;9.184;2022-10-16T14:03:51;5.45;;;2.65;;
27740;SDS011;15134;48.768;9.184;2022-10-16T14:06:18;4.50;;;2.30;;
27740;SDS011;15134;48.768;9.184;2022-10-16T14:08:48;4.50;;;1.60;;
27740;SDS011;15134;48.768;9.184;2022-10-16T14:11:24;4.93;;;1.50;;
27740;SDS011;15134;48.768;9.184;2022-10-16T14:13:50;5.13;;;1.70;;
27740;SDS011;15134;48.768;9.184;2022-10-16T14:16:21;8.40;;;2.20;;
27740;SDS011;15134;48.768;9.184;2022-10-16T14:18:54;4.40;;;1.80;;
27740;SDS011;15134;48.768;9.184;2022-10-16T14:21:31;6.40;;;1.65;;
27740;SDS011;15134;48.768;9.184;2022-10-16T14:23:58;3.45;;;1.67;;
27740;SDS011;15134;48.768;9.184;2022-10-16T14:26:27;5.83;;;1.67;;
27740;SDS011;15134;48.768;9.184;2022-10-16T14:31:42;6.43;;;1.98;;
27740;SDS011;15134;48.768;9.184;2022-10-16T14:36:53;4.75;;;2.00;;
27740;SDS011;15134;48.768;9.184;2022-10-16T14:39:20;8.00;;;3.40;;
27740;SDS011;15134;48.768;9.184;2022-10-16T14:41:48;4.95;;;2.05;;
27740;SDS011;15134;48.768;9.184;2022-10-16T14:44:16;5.15;;;2.30;;
27740;SDS011;15134;48.768;9.184;2022-10-16T14:46:43;6.47;;;1.90;;
27740;SDS011;15134;48.768;9.184;2022-10-16T14:51:36;4.55;;;1.55;;
27740;SDS011;15134;48.768;9.184;2022-10-16T14:54:07;8.88;;;2.30;;
27740;SDS011;15134;48.768;9.184;2022-10-16T14:56:40;11.10;;;3.00;;
27740;SDS011;15134;48.768;9.184;2022-10-16T14:59:17;4.15;;;2.00;;
27740;SDS011;15134;48.768;9.184;2022-10-16T15:01:54;3.90;;;1.80;;
27740;SDS011;15134;48.768;9.184;2022-10-16T15:04:20;6.90;;;2.17;;
27740;SDS011;15134;48.768;9.184;2022-10-16T15:06:46;7.00;;;2.50;;
27740;SDS011;15134;48.768;9.184;2022-10-16T15:09:12;4.73;;;1.60;;
27740;SDS011;15134;48.768;9.184;2022-10-16T15:11:38;2.53;;;1.30;;
27740;SDS011;15134;48.768;9.184;2022-10-16T15:14:04;3.08;;;1.50;;
27740;SDS011;15134;48.768;9.184;2022-10-16T15:16:30;4.53;;;1.77;;
27740;SDS011;15134;48.768;9.184;2022-10-16T15:18:56;4.38;;;1.92;;
27740;SDS011;15134;48.768;9.184;2022-10-16T15:21:24;7.65;;;1.70;;
27740;SDS011;15134;48.768;9.184;2022-10-16T15:23:54;8.73;;;2.50;;
27740;SDS011;15134;48.768;9.184;2022-10-16T15:26:22;3.25;;;1.63;;
27740;SDS011;15134;48.768;9.184;2022-10-16T15:28:48;5.85;;;2.35;;
27740;SDS011;15134;48.768;9.184;2022-10-16T15:31:14;5.00;;;1.80;;
27740;SDS011;15134;48.768;9.184;2022-10-16T15:33:40;5.37;;;1.87;;
27740;SDS011;15134;48.768;9.184;2022-10-16T15:36:06;5.00;;;1.83;;
27740;SDS011;15134;48.768;9.184;2022-10-16T15:38:32;5.93;;;1.35;;
27740;SDS011;15134;48.768;9.184;2022-10-16T15:40:57;6.83;;;2.10;;
27740;SDS011;15134;48.768;9.184;2022-10-16T15:43:23;8.10;;;2.40;;
27740;SDS011;15134;48.768;9.184;2022-10-16T15:45:58;3.10;;;1.50;;
27740;SDS011;15134;48.768;9.184;2022-10-16T15:48:26;2.90;;;1.58;;
27740;SDS011;15134;48.768;9.184;2022-10-16T15:50:53;3.45;;;1.52;;
27740;SDS011;15134;48.768;9.184;2022-10-16T15:53:18;3.90;;;1.30;;
27740;SDS011;15134;48.768;9.184;2022-10-16T15:55:44;4.00;;;1.60;;
27740;SDS011;15134;48.768;9.184;2022-10-16T15:58:10;5.53;;;1.83;;
27740;SDS011;15134;48.768;9.184;2022-10-16T16:00:36;6.67;;;1.73;;
27740;SDS011;15134;48.768;9.184;2022-10-16T16:03:02;4.32;;;1.65;;
27740;SDS011;15134;48.768;9.184;2022-10-16T16:05:28;6.23;;;1.30;;
27740;SDS011;15134;48.768;9.184;2022-10-16T16:07:53;5.07;;;1.43;;
27740;SDS011;15134;48.768;9.184;2022-10-16T16:10:19;3.50;;;1.50;;
27740;SDS011;15134;48.768;9.184;2022-10-16T16:12:48;4.32;;;1.80;;
27740;SDS011;15134;48.768;9.184;2022-10-16T16:15:17;4.43;;;1.90;;
27740;SDS011;15134;48.768;9.184;2022-10-16T16:17:44;4.40;;;1.75;;
27740;SDS011;15134;48.768;9.184;2022-10-16T16:20:10;6.00;;;1.60;;
27740;SDS011;15134;48.768;9.184;2022-10-16T16:22:36;7.45;;;1.83;;
27740;SDS011;15134;48.768;9.184;2022-10-16T16:25:02;3.13;;;1.77;;
27740;SDS011;15134;48.768;9.184;2022-10-16T16:27:28;4.55;;;2.10;;
27740;SDS011;15134;48.768;9.184;2022-10-16T16:29:58;6.40;;;1.55;;
27740;SDS011;15134;48.768;9.184;2022-10-16T16:32:23;4.70;;;1.60;;
27740;SDS011;15134;48.768;9.184;2022-10-16T16:34:49;7.18;;;2.67;;
27740;SDS011;15134;48.768;9.184;2022-10-16T16:37:15;4.40;;;1.80;;
27740;SDS011;15134;48.768;9.184;2022-10-16T16:39:41;6.63;;;2.15;;
27740;SDS011;15134;48.768;9.184;2022-10-16T16:42:07;3.97;;;1.80;;
27740;SDS011;15134;48.768;9.184;2022-10-16T16:44:35;4.75;;;2.00;;
27740;SDS011;15134;48.768;9.184;2022-10-16T16:47:02;5.45;;;2.13;;
27740;SDS011;15134;48.768;9.184;2022-10-16T16:49:28;5.60;;;1.95;;
27740;SDS011;15134;48.768;9.184;2022-10-16T16:51:54;4.43;;;2.53;;
27740;SDS011;15134;48.768;9.184;2022-10-16T16:54:20;5.33;;;2.10;;
27740;SDS011;15134;48.768;9.184;2022-10-16T16:56:45;3.92;;;1.85;;
27740;SDS011;15134;48.768;9.184;2022-10-16T16:59:15;5.25;;;1.92;;
27740;SDS011;15134;48.768;9.184;2022-10-16T17:01:43;7.82;;;2.20;;
27740;SDS011;15134;48.768;9.184;2022-10-16T17:04:09;5.43;;;1.70;;
27740;SDS011;15134;48.768;9.184;2022-10-16T17:06:35;6.93;;;1.60;;
27740;SDS011;15134;48.768;9.184;2022-10-16T17:09:03;4.95;;;1.95;;
27740;SDS011;15134;48.768;9.184;2022-10-16T17:11:31;4.53;;;1.80;;
27740;SDS011;15134;48.768;9.184;2022-10-16T17:13:57;7.68;;;2.10;;
27740;SDS011;15134;48.768;9.184;2022-10-16T17:16:25;6.93;;;2.40;;
27740;SDS011;15134;48.768;9.184;2022-10-16T17:18:58;5.00;;;2.20;;
27740;SDS011;15134;48.768;9.184;2022-10-16T17:21:24;4.05;;;2.10;;